sensor_id;sensor_type;location;lat;lon;timestamp;P1;durP1;ratioP1;P2;durP2;ratioP2
39410;SDS011;26579;43.238;23.124;2023-04-01T00:01:31;4.13;;;1.40;;
39410;SDS011;26579;43.238;23.124;2023-04-01T00:03:57;6.50;;;1.20;;
39410;SDS011;26579;43.238;23.124;2023-04-01T00:06:22;7.75;;;1.52;;
39410;SDS011;26579;43.238;23.124;2023-04-01T00:08:49;6.88;;;1.48;;
39410;SDS011;26579;43.238;23.124;2023-04-01T00:11:15;4.93;;;1.63;;
39410;SDS011;26579;43.238;23.124;2023-04-01T00:13:41;3.22;;;1.30;;
39410;SDS011;26579;43.238;23.124;2023-04-01T00:16:07;3.05;;;1.02;;
39410;SDS011;26579;43.238;23.124;2023-04-01T00:18:34;5.57;;;1.75;;
39410;SDS011;26579;43.238;23.124;2023-04-01T00:21:00;3.75;;;1.40;;
39410;SDS011;26579;43.238;23.124;2023-04-01T00:23:25;3.30;;;1.55;;
39410;SDS011;26579;43.238;23.124;2023-04-01T00:25:51;5.35;;;1.80;;
39410;SDS011;26579;43.238;23.124;2023-04-01T00:28:17;6.45;;;1.83;;
39410;SDS011;26579;43.238;23.124;2023-04-01T00:30:44;7.10;;;1.58;;
39410;SDS011;26579;43.238;23.124;2023-04-01T00:33:13;5.72;;;2.08;;
39410;SDS011;26579;43.238;23.124;2023-04-01T00:35:39;4.70;;;1.42;;
39410;SDS011;26579;43.238;23.124;2023-04-01T00:38:05;5.90;;;1.60;;
39410;SDS011;26579;43.238;23.124;2023-04-01T00:40:32;5.55;;;1.63;;
39410;SDS011;26579;43.238;23.124;2023-04-01T00:43:01;7.78;;;1.55;;
39410;SDS011;26579;43.238;23.124;2023-04-01T00:45:35;5.07;;;1.98;;
39410;SDS011;26579;43.238;23.124;2023-04-01T00:50:31;5.68;;;1.38;;
39410;SDS011;26579;43.238;23.124;2023-04-01T00:52:59;7.43;;;1.85;;
39410;SDS011;26579;43.238;23.124;2023-04-01T00:55:26;3.10;;;1.25;;
39410;SDS011;26579;43.238;23.124;2023-04-01T00:57:54;6.68;;;2.10;;
39410;SDS011;26579;43.238;23.124;2023-04-01T01:00:22;6.10;;;1.20;;
39410;SDS011;26579;43.238;23.124;2023-04-01T01:02:48;3.95;;;1.63;;
39410;SDS011;26579;43.238;23.124;2023-04-01T01:05:16;3.90;;;1.48;;
39410;SDS011;26579;43.238;23.124;2023-04-01T01:15:44;5.22;;;1.25;;
39410;SDS011;26579;43.238;23.124;2023-04-01T01:18:39;6.23;;;1.50;;
39410;SDS011;26579;43.238;23.124;2023-04-01T01:24:03;7.22;;;1.48;;
39410;SDS011;26579;43.238;23.124;2023-04-01T01:37:43;9.55;;;1.85;;
39410;SDS011;26579;43.238;23.124;2023-04-01T01:40:12;8.38;;;2.08;;
39410;SDS011;26579;43.238;23.124;2023-04-01T01:42:41;7.53;;;1.30;;
39410;SDS011;26579;43.238;23.124;2023-04-01T01:45:12;6.10;;;1.70;;
39410;SDS011;26579;43.238;23.124;2023-04-01T01:47:41;5.55;;;1.70;;
39410;SDS011;26579;43.238;23.124;2023-04-01T01:50:08;6.32;;;1.50;;
39410;SDS011;26579;43.238;23.124;2023-04-01T01:52:35;6.15;;;1.25;;
39410;SDS011;26579;43.238;23.124;2023-04-01T01:55:01;6.57;;;1.98;;
39410;SDS011;26579;43.238;23.124;2023-04-01T01:57:37;3.85;;;1.10;;
39410;SDS011;26579;43.238;23.124;2023-04-01T02:00:09;7.55;;;1.63;;
39410;SDS011;26579;43.238;23.124;2023-04-01T02:02:39;9.77;;;1.42;;
39410;SDS011;26579;43.238;23.124;2023-04-01T02:05:10;5.45;;;1.67;;
39410;SDS011;26579;43.238;23.124;2023-04-01T02:07:40;5.10;;;1.63;;
39410;SDS011;26579;43.238;23.124;2023-04-01T02:10:11;5.13;;;1.35;;
39410;SDS011;26579;43.238;23.124;2023-04-01T02:12:37;3.55;;;1.35;;
39410;SDS011;26579;43.238;23.124;2023-04-01T02:15:08;5.95;;;1.75;;
39410;SDS011;26579;43.238;23.124;2023-04-01T02:17:38;4.63;;;1.25;;
39410;SDS011;26579;43.238;23.124;2023-04-01T02:20:09;7.65;;;1.30;;
39410;SDS011;26579;43.238;23.124;2023-04-01T02:22:41;5.35;;;1.42;;
39410;SDS011;26579;43.238;23.124;2023-04-01T02:25:13;5.25;;;1.80;;
39410;SDS011;26579;43.238;23.124;2023-04-01T02:27:42;4.28;;;1.00;;
39410;SDS011;26579;43.238;23.124;2023-04-01T02:30:10;3.65;;;1.23;;
39410;SDS011;26579;43.238;23.124;2023-04-01T02:32:37;5.50;;;1.65;;
39410;SDS011;26579;43.238;23.124;2023-04-01T02:35:11;6.32;;;1.33;;
39410;SDS011;26579;43.238;23.124;2023-04-01T02:37:39;6.90;;;1.40;;
39410;SDS011;26579;43.238;23.124;2023-04-01T02:40:06;9.20;;;1.95;;
39410;SDS011;26579;43.238;23.124;2023-04-01T02:42:33;6.72;;;1.30;;
39410;SDS011;26579;43.238;23.124;2023-04-01T02:44:59;6.85;;;1.40;;
39410;SDS011;26579;43.238;23.124;2023-04-01T02:47:25;5.38;;;1.15;;
39410;SDS011;26579;43.238;23.124;2023-04-01T02:49:51;5.35;;;1.38;;
39410;SDS011;26579;43.238;23.124;2023-04-01T02:52:17;8.52;;;1.83;;
39410;SDS011;26579;43.238;23.124;2023-04-01T02:54:42;8.07;;;1.40;;
39410;SDS011;26579;43.238;23.124;2023-04-01T02:57:08;3.88;;;1.20;;
39410;SDS011;26579;43.238;23.124;2023-04-01T02:59:34;5.68;;;1.38;;
39410;SDS011;26579;43.238;23.124;2023-04-01T03:01:59;5.75;;;1.27;;
39410;SDS011;26579;43.238;23.124;2023-04-01T03:04:25;4.25;;;1.35;;
39410;SDS011;26579;43.238;23.124;2023-04-01T03:06:51;6.93;;;1.55;;
39410;SDS011;26579;43.238;23.124;2023-04-01T03:09:16;4.45;;;1.33;;
39410;SDS011;26579;43.238;23.124;2023-04-01T03:11:42;4.43;;;1.30;;
39410;SDS011;26579;43.238;23.124;2023-04-01T03:14:08;5.95;;;1.48;;
39410;SDS011;26579;43.238;23.124;2023-04-01T03:16:34;5.13;;;1.13;;
39410;SDS011;26579;43.238;23.124;2023-04-01T03:19:00;4.10;;;1.27;;
39410;SDS011;26579;43.238;23.124;2023-04-01T03:21:26;5.10;;;1.50;;
39410;SDS011;26579;43.238;23.124;2023-04-01T03:23:51;6.45;;;1.50;;
39410;SDS011;26579;43.238;23.124;2023-04-01T03:26:17;4.45;;;1.52;;
39410;SDS011;26579;43.238;23.124;2023-04-01T03:28:43;2.75;;;1.35;;
39410;SDS011;26579;43.238;23.124;2023-04-01T03:31:09;4.78;;;1.10;;
39410;SDS011;26579;43.238;23.124;2023-04-01T03:33:42;4.88;;;1.20;;
39410;SDS011;26579;43.238;23.124;2023-04-01T03:36:08;4.35;;;1.20;;
39410;SDS011;26579;43.238;23.124;2023-04-01T03:38:34;6.15;;;1.05;;
39410;SDS011;26579;43.238;23.124;2023-04-01T03:41:00;3.88;;;1.75;;
39410;SDS011;26579;43.238;23.124;2023-04-01T03:43:26;4.15;;;1.38;;
39410;SDS011;26579;43.238;23.124;2023-04-01T03:45:52;3.15;;;1.10;;
39410;SDS011;26579;43.238;23.124;2023-04-01T03:48:18;5.63;;;1.17;;
39410;SDS011;26579;43.238;23.124;2023-04-01T03:50:44;4.40;;;1.45;;
39410;SDS011;26579;43.238;23.124;2023-04-01T03:53:10;4.10;;;1.50;;
39410;SDS011;26579;43.238;23.124;2023-04-01T03:55:39;3.13;;;1.40;;
39410;SDS011;26579;43.238;23.124;2023-04-01T03:58:05;7.55;;;1.73;;
39410;SDS011;26579;43.238;23.124;2023-04-01T04:00:33;4.47;;;1.88;;
39410;SDS011;26579;43.238;23.124;2023-04-01T04:02:59;5.30;;;1.65;;
39410;SDS011;26579;43.238;23.124;2023-04-01T04:05:30;10.23;;;2.00;;
39410;SDS011;26579;43.238;23.124;2023-04-01T04:07:55;2.90;;;1.95;;
39410;SDS011;26579;43.238;23.124;2023-04-01T04:10:21;6.00;;;2.40;;
39410;SDS011;26579;43.238;23.124;2023-04-01T04:12:48;6.38;;;3.00;;
39410;SDS011;26579;43.238;23.124;2023-04-01T04:15:14;6.72;;;3.30;;
39410;SDS011;26579;43.238;23.124;2023-04-01T04:17:40;5.93;;;2.78;;
39410;SDS011;26579;43.238;23.124;2023-04-01T04:20:07;6.22;;;2.50;;
39410;SDS011;26579;43.238;23.124;2023-04-01T04:22:33;5.15;;;2.58;;
39410;SDS011;26579;43.238;23.124;2023-04-01T04:24:59;6.72;;;2.38;;
39410;SDS011;26579;43.238;23.124;2023-04-01T04:27:25;8.50;;;2.90;;
39410;SDS011;26579;43.238;23.124;2023-04-01T04:29:59;8.05;;;2.03;;
39410;SDS011;26579;43.238;23.124;2023-04-01T04:32:25;8.57;;;2.17;;
39410;SDS011;26579;43.238;23.124;2023-04-01T04:34:50;6.05;;;2.08;;
39410;SDS011;26579;43.238;23.124;2023-04-01T04:37:17;7.25;;;2.22;;
39410;SDS011;26579;43.238;23.124;2023-04-01T04:39:43;6.68;;;2.08;;
39410;SDS011;26579;43.238;23.124;2023-04-01T04:42:09;4.97;;;2.22;;
39410;SDS011;26579;43.238;23.124;2023-04-01T04:44:35;4.72;;;1.60;;
39410;SDS011;26579;43.238;23.124;2023-04-01T04:47:01;7.63;;;3.38;;
39410;SDS011;26579;43.238;23.124;2023-04-01T04:49:27;12.07;;;5.10;;
39410;SDS011;26579;43.238;23.124;2023-04-01T04:51:52;9.63;;;4.55;;
39410;SDS011;26579;43.238;23.124;2023-04-01T04:54:21;10.32;;;3.90;;
39410;SDS011;26579;43.238;23.124;2023-04-01T04:56:52;5.88;;;1.50;;
39410;SDS011;26579;43.238;23.124;2023-04-01T04:59:20;5.80;;;2.05;;
39410;SDS011;26579;43.238;23.124;2023-04-01T05:02:00;6.30;;;1.45;;
39410;SDS011;26579;43.238;23.124;2023-04-01T05:04:27;11.07;;;2.13;;
39410;SDS011;26579;43.238;23.124;2023-04-01T05:06:53;10.18;;;1.88;;
39410;SDS011;26579;43.238;23.124;2023-04-01T05:09:18;6.45;;;2.05;;
39410;SDS011;26579;43.238;23.124;2023-04-01T05:11:44;6.07;;;2.60;;
39410;SDS011;26579;43.238;23.124;2023-04-01T05:14:16;6.93;;;3.03;;
39410;SDS011;26579;43.238;23.124;2023-04-01T05:16:51;7.80;;;2.45;;
39410;SDS011;26579;43.238;23.124;2023-04-01T05:19:16;8.80;;;2.88;;
39410;SDS011;26579;43.238;23.124;2023-04-01T05:21:42;8.27;;;2.78;;
39410;SDS011;26579;43.238;23.124;2023-04-01T05:24:08;9.00;;;2.00;;
39410;SDS011;26579;43.238;23.124;2023-04-01T05:26:34;8.43;;;2.65;;
39410;SDS011;26579;43.238;23.124;2023-04-01T05:29:00;17.95;;;4.20;;
39410;SDS011;26579;43.238;23.124;2023-04-01T05:31:26;13.80;;;5.65;;
39410;SDS011;26579;43.238;23.124;2023-04-01T05:33:52;10.43;;;5.95;;
39410;SDS011;26579;43.238;23.124;2023-04-01T05:36:18;11.43;;;4.72;;
39410;SDS011;26579;43.238;23.124;2023-04-01T05:38:43;11.23;;;4.90;;
39410;SDS011;26579;43.238;23.124;2023-04-01T05:41:11;9.98;;;4.15;;
39410;SDS011;26579;43.238;23.124;2023-04-01T05:43:42;10.02;;;2.85;;
39410;SDS011;26579;43.238;23.124;2023-04-01T05:46:26;8.57;;;3.35;;
39410;SDS011;26579;43.238;23.124;2023-04-01T05:48:58;11.52;;;4.00;;
39410;SDS011;26579;43.238;23.124;2023-04-01T05:51:25;15.00;;;4.68;;
39410;SDS011;26579;43.238;23.124;2023-04-01T05:53:51;10.57;;;3.90;;
39410;SDS011;26579;43.238;23.124;2023-04-01T05:56:17;9.48;;;3.78;;
39410;SDS011;26579;43.238;23.124;2023-04-01T05:58:50;9.10;;;3.78;;
39410;SDS011;26579;43.238;23.124;2023-04-01T06:01:18;10.82;;;4.05;;
39410;SDS011;26579;43.238;23.124;2023-04-01T06:03:49;15.68;;;4.07;;
39410;SDS011;26579;43.238;23.124;2023-04-01T06:06:52;6.95;;;2.67;;
39410;SDS011;26579;43.238;23.124;2023-04-01T06:09:29;8.07;;;3.80;;
39410;SDS011;26579;43.238;23.124;2023-04-01T06:14:41;9.82;;;3.97;;
39410;SDS011;26579;43.238;23.124;2023-04-01T06:48:25;26.00;;;12.25;;
39410;SDS011;26579;43.238;23.124;2023-04-01T06:54:28;17.43;;;8.93;;
39410;SDS011;26579;43.238;23.124;2023-04-01T06:57:41;21.70;;;7.70;;
39410;SDS011;26579;43.238;23.124;2023-04-01T07:00:23;13.48;;;6.03;;
39410;SDS011;26579;43.238;23.124;2023-04-01T07:02:54;12.82;;;3.97;;
39410;SDS011;26579;43.238;23.124;2023-04-01T07:05:34;17.85;;;3.08;;
39410;SDS011;26579;43.238;23.124;2023-04-01T07:08:08;9.47;;;2.70;;
39410;SDS011;26579;43.238;23.124;2023-04-01T07:10:50;9.77;;;1.92;;
39410;SDS011;26579;43.238;23.124;2023-04-01T07:16:15;6.40;;;1.90;;
39410;SDS011;26579;43.238;23.124;2023-04-01T07:22:16;5.38;;;1.90;;
39410;SDS011;26579;43.238;23.124;2023-04-01T07:25:22;5.88;;;1.92;;
39410;SDS011;26579;43.238;23.124;2023-04-01T07:28:06;6.15;;;1.33;;
39410;SDS011;26579;43.238;23.124;2023-04-01T07:36:25;6.28;;;2.97;;
39410;SDS011;26579;43.238;23.124;2023-04-01T07:50:34;8.07;;;2.20;;
39410;SDS011;26579;43.238;23.124;2023-04-01T08:04:53;9.35;;;2.83;;
39410;SDS011;26579;43.238;23.124;2023-04-01T08:10:52;10.85;;;2.88;;
39410;SDS011;26579;43.238;23.124;2023-04-01T08:13:57;12.23;;;2.20;;
39410;SDS011;26579;43.238;23.124;2023-04-01T08:17:05;7.85;;;2.00;;
39410;SDS011;26579;43.238;23.124;2023-04-01T08:22:36;5.20;;;2.20;;
39410;SDS011;26579;43.238;23.124;2023-04-01T08:25:17;5.53;;;2.33;;
39410;SDS011;26579;43.238;23.124;2023-04-01T08:30:43;4.40;;;2.10;;
39410;SDS011;26579;43.238;23.124;2023-04-01T08:33:32;13.88;;;2.38;;
39410;SDS011;26579;43.238;23.124;2023-04-01T08:36:08;7.70;;;2.33;;
39410;SDS011;26579;43.238;23.124;2023-04-01T08:38:54;6.00;;;2.00;;
39410;SDS011;26579;43.238;23.124;2023-04-01T08:55:51;5.95;;;3.28;;
39410;SDS011;26579;43.238;23.124;2023-04-01T08:58:42;9.68;;;3.78;;
39410;SDS011;26579;43.238;23.124;2023-04-01T09:24:22;8.02;;;3.30;;
39410;SDS011;26579;43.238;23.124;2023-04-01T09:35:38;10.85;;;2.92;;
39410;SDS011;26579;43.238;23.124;2023-04-01T09:40:56;10.38;;;3.05;;
39410;SDS011;26579;43.238;23.124;2023-04-01T09:43:50;9.02;;;3.20;;
39410;SDS011;26579;43.238;23.124;2023-04-01T09:49:13;10.05;;;3.72;;
39410;SDS011;26579;43.238;23.124;2023-04-01T10:12:48;9.52;;;2.78;;
39410;SDS011;26579;43.238;23.124;2023-04-01T10:21:06;9.23;;;3.17;;
39410;SDS011;26579;43.238;23.124;2023-04-01T10:24:00;14.52;;;5.50;;
39410;SDS011;26579;43.238;23.124;2023-04-01T10:46:53;12.98;;;4.07;;
39410;SDS011;26579;43.238;23.124;2023-04-01T11:41:46;14.82;;;4.68;;
39410;SDS011;26579;43.238;23.124;2023-04-01T11:45:46;15.52;;;6.88;;
39410;SDS011;26579;43.238;23.124;2023-04-01T11:53:19;15.63;;;8.25;;
39410;SDS011;26579;43.238;23.124;2023-04-01T12:11:57;9.10;;;5.25;;
39410;SDS011;26579;43.238;23.124;2023-04-01T12:14:44;20.05;;;10.20;;
39410;SDS011;26579;43.238;23.124;2023-04-01T12:23:19;9.90;;;4.25;;
39410;SDS011;26579;43.238;23.124;2023-04-01T12:31:42;8.75;;;4.00;;
39410;SDS011;26579;43.238;23.124;2023-04-01T12:34:34;7.45;;;4.07;;
39410;SDS011;26579;43.238;23.124;2023-04-01T12:37:13;8.70;;;5.13;;
39410;SDS011;26579;43.238;23.124;2023-04-01T12:40:15;15.82;;;7.22;;
39410;SDS011;26579;43.238;23.124;2023-04-01T12:45:45;6.57;;;3.97;;
39410;SDS011;26579;43.238;23.124;2023-04-01T12:51:10;4.85;;;2.25;;
39410;SDS011;26579;43.238;23.124;2023-04-01T13:29:35;5.38;;;2.40;;
39410;SDS011;26579;43.238;23.124;2023-04-01T13:48:26;3.22;;;1.45;;
39410;SDS011;26579;43.238;23.124;2023-04-01T13:53:56;1.75;;;1.20;;
39410;SDS011;26579;43.238;23.124;2023-04-01T14:15:41;2.47;;;0.65;;
39410;SDS011;26579;43.238;23.124;2023-04-01T14:20:49;3.80;;;1.50;;
39410;SDS011;26579;43.238;23.124;2023-04-01T14:23:35;2.28;;;1.08;;
39410;SDS011;26579;43.238;23.124;2023-04-01T14:26:25;4.10;;;1.20;;
39410;SDS011;26579;43.238;23.124;2023-04-01T14:31:58;2.90;;;0.90;;
39410;SDS011;26579;43.238;23.124;2023-04-01T14:51:03;4.20;;;1.42;;
39410;SDS011;26579;43.238;23.124;2023-04-01T14:53:53;2.15;;;0.85;;
39410;SDS011;26579;43.238;23.124;2023-04-01T14:56:39;3.55;;;1.40;;
39410;SDS011;26579;43.238;23.124;2023-04-01T14:59:10;3.47;;;1.17;;
39410;SDS011;26579;43.238;23.124;2023-04-01T15:07:50;3.67;;;1.63;;
39410;SDS011;26579;43.238;23.124;2023-04-01T15:10:25;3.58;;;1.40;;
39410;SDS011;26579;43.238;23.124;2023-04-01T15:13:13;3.85;;;1.20;;
39410;SDS011;26579;43.238;23.124;2023-04-01T15:15:49;6.57;;;1.45;;
39410;SDS011;26579;43.238;23.124;2023-04-01T15:25:21;7.10;;;2.45;;
39410;SDS011;26579;43.238;23.124;2023-04-01T15:35:38;5.35;;;2.60;;
39410;SDS011;26579;43.238;23.124;2023-04-01T15:38:36;6.03;;;2.10;;
39410;SDS011;26579;43.238;23.124;2023-04-01T15:41:16;13.20;;;5.88;;
39410;SDS011;26579;43.238;23.124;2023-04-01T15:43:53;15.02;;;8.52;;
39410;SDS011;26579;43.238;23.124;2023-04-01T15:49:11;16.42;;;8.73;;
39410;SDS011;26579;43.238;23.124;2023-04-01T15:51:47;11.10;;;6.47;;
39410;SDS011;26579;43.238;23.124;2023-04-01T15:58:01;15.25;;;7.22;;
39410;SDS011;26579;43.238;23.124;2023-04-01T16:01:14;12.48;;;6.45;;
39410;SDS011;26579;43.238;23.124;2023-04-01T16:05:57;8.07;;;5.03;;
39410;SDS011;26579;43.238;23.124;2023-04-01T16:12:16;8.88;;;4.63;;
39410;SDS011;26579;43.238;23.124;2023-04-01T16:26:06;14.80;;;8.80;;
39410;SDS011;26579;43.238;23.124;2023-04-01T16:28:42;5.45;;;3.10;;
39410;SDS011;26579;43.238;23.124;2023-04-01T16:31:27;7.50;;;3.83;;
39410;SDS011;26579;43.238;23.124;2023-04-01T16:34:10;2.90;;;1.90;;
39410;SDS011;26579;43.238;23.124;2023-04-01T16:36:53;4.30;;;2.17;;
39410;SDS011;26579;43.238;23.124;2023-04-01T16:56:09;2.53;;;1.10;;
39410;SDS011;26579;43.238;23.124;2023-04-01T17:01:43;5.57;;;3.85;;
39410;SDS011;26579;43.238;23.124;2023-04-01T17:15:51;1.35;;;0.90;;
39410;SDS011;26579;43.238;23.124;2023-04-01T17:18:26;1.48;;;0.70;;
39410;SDS011;26579;43.238;23.124;2023-04-01T17:21:54;2.95;;;1.85;;
39410;SDS011;26579;43.238;23.124;2023-04-01T17:35:16;1.33;;;0.80;;
39410;SDS011;26579;43.238;23.124;2023-04-01T17:45:53;2.10;;;1.25;;
39410;SDS011;26579;43.238;23.124;2023-04-01T17:54:03;1.58;;;1.17;;
39410;SDS011;26579;43.238;23.124;2023-04-01T17:56:40;2.65;;;1.55;;
39410;SDS011;26579;43.238;23.124;2023-04-01T18:15:49;4.70;;;3.22;;
39410;SDS011;26579;43.238;23.124;2023-04-01T18:26:10;4.75;;;2.75;;
39410;SDS011;26579;43.238;23.124;2023-04-01T18:28:42;2.67;;;1.83;;
39410;SDS011;26579;43.238;23.124;2023-04-01T18:31:16;5.70;;;3.63;;
39410;SDS011;26579;43.238;23.124;2023-04-01T18:36:49;6.60;;;3.88;;
39410;SDS011;26579;43.238;23.124;2023-04-01T18:39:34;3.95;;;1.90;;
39410;SDS011;26579;43.238;23.124;2023-04-01T18:45:03;3.50;;;2.45;;
39410;SDS011;26579;43.238;23.124;2023-04-01T18:47:44;3.75;;;2.35;;
39410;SDS011;26579;43.238;23.124;2023-04-01T18:55:52;7.43;;;3.17;;
39410;SDS011;26579;43.238;23.124;2023-04-01T19:03:52;3.30;;;1.60;;
39410;SDS011;26579;43.238;23.124;2023-04-01T19:06:28;2.75;;;1.35;;
39410;SDS011;26579;43.238;23.124;2023-04-01T19:09:00;3.53;;;1.83;;
39410;SDS011;26579;43.238;23.124;2023-04-01T19:14:56;7.05;;;4.15;;
39410;SDS011;26579;43.238;23.124;2023-04-01T19:18:47;6.95;;;4.40;;
39410;SDS011;26579;43.238;23.124;2023-04-01T19:24:03;6.05;;;3.85;;
39410;SDS011;26579;43.238;23.124;2023-04-01T19:26:57;7.05;;;3.78;;
39410;SDS011;26579;43.238;23.124;2023-04-01T19:29:29;6.03;;;3.45;;
39410;SDS011;26579;43.238;23.124;2023-04-01T19:34:49;2.97;;;1.83;;
39410;SDS011;26579;43.238;23.124;2023-04-01T19:37:28;3.88;;;1.60;;
39410;SDS011;26579;43.238;23.124;2023-04-01T19:45:43;2.05;;;1.52;;
39410;SDS011;26579;43.238;23.124;2023-04-01T19:48:23;1.48;;;0.93;;
39410;SDS011;26579;43.238;23.124;2023-04-01T19:51:18;1.45;;;1.02;;
39410;SDS011;26579;43.238;23.124;2023-04-01T19:56:42;4.57;;;1.50;;
39410;SDS011;26579;43.238;23.124;2023-04-01T19:59:35;3.17;;;1.33;;
39410;SDS011;26579;43.238;23.124;2023-04-01T20:04:40;10.63;;;5.40;;
39410;SDS011;26579;43.238;23.124;2023-04-01T20:09:44;15.60;;;9.93;;
39410;SDS011;26579;43.238;23.124;2023-04-01T20:12:48;21.30;;;14.23;;
39410;SDS011;26579;43.238;23.124;2023-04-01T20:20:59;5.28;;;1.83;;
39410;SDS011;26579;43.238;23.124;2023-04-01T20:26:24;6.57;;;2.97;;
39410;SDS011;26579;43.238;23.124;2023-04-01T20:37:44;9.97;;;4.27;;
39410;SDS011;26579;43.238;23.124;2023-04-01T20:40:20;14.52;;;7.22;;
39410;SDS011;26579;43.238;23.124;2023-04-01T20:45:42;13.45;;;6.80;;
39410;SDS011;26579;43.238;23.124;2023-04-01T20:51:06;8.17;;;5.07;;
39410;SDS011;26579;43.238;23.124;2023-04-01T21:18:15;4.97;;;3.22;;
39410;SDS011;26579;43.238;23.124;2023-04-01T21:40:18;5.70;;;3.10;;
39410;SDS011;26579;43.238;23.124;2023-04-01T21:50:47;27.05;;;13.60;;
39410;SDS011;26579;43.238;23.124;2023-04-01T21:53:44;8.30;;;4.28;;
39410;SDS011;26579;43.238;23.124;2023-04-01T22:05:15;6.10;;;3.50;;
39410;SDS011;26579;43.238;23.124;2023-04-01T22:08:12;8.43;;;4.70;;
39410;SDS011;26579;43.238;23.124;2023-04-01T22:11:14;7.55;;;4.03;;
39410;SDS011;26579;43.238;23.124;2023-04-01T22:13:45;6.53;;;3.15;;
39410;SDS011;26579;43.238;23.124;2023-04-01T22:19:11;5.53;;;1.83;;
39410;SDS011;26579;43.238;23.124;2023-04-01T22:21:47;3.58;;;1.40;;
39410;SDS011;26579;43.238;23.124;2023-04-01T22:24:29;4.00;;;1.77;;
39410;SDS011;26579;43.238;23.124;2023-04-01T22:27:07;5.90;;;1.70;;
39410;SDS011;26579;43.238;23.124;2023-04-01T22:32:24;2.08;;;0.60;;
39410;SDS011;26579;43.238;23.124;2023-04-01T22:35:48;1.42;;;0.60;;
39410;SDS011;26579;43.238;23.124;2023-04-01T22:43:07;1.33;;;0.55;;
39410;SDS011;26579;43.238;23.124;2023-04-01T22:45:43;3.30;;;1.00;;
39410;SDS011;26579;43.238;23.124;2023-04-01T22:51:01;1.75;;;0.77;;
39410;SDS011;26579;43.238;23.124;2023-04-01T22:53:35;4.00;;;1.65;;
39410;SDS011;26579;43.238;23.124;2023-04-01T22:56:11;7.70;;;2.85;;
39410;SDS011;26579;43.238;23.124;2023-04-01T22:58:48;6.35;;;2.00;;
39410;SDS011;26579;43.238;23.124;2023-04-01T23:03:50;4.47;;;1.95;;
39410;SDS011;26579;43.238;23.124;2023-04-01T23:06:20;4.72;;;2.17;;
39410;SDS011;26579;43.238;23.124;2023-04-01T23:16:54;3.92;;;1.33;;
39410;SDS011;26579;43.238;23.124;2023-04-01T23:19:37;6.43;;;3.33;;
39410;SDS011;26579;43.238;23.124;2023-04-01T23:22:20;7.05;;;3.22;;
39410;SDS011;26579;43.238;23.124;2023-04-01T23:35:50;4.78;;;2.08;;
39410;SDS011;26579;43.238;23.124;2023-04-01T23:38:25;5.20;;;2.03;;
39410;SDS011;26579;43.238;23.124;2023-04-01T23:40:52;5.95;;;1.73;;
39410;SDS011;26579;43.238;23.124;2023-04-01T23:43:25;3.22;;;1.30;;
39410;SDS011;26579;43.238;23.124;2023-04-01T23:46:17;2.50;;;0.60;;
39410;SDS011;26579;43.238;23.124;2023-04-01T23:48:44;5.57;;;1.25;;
39410;SDS011;26579;43.238;23.124;2023-04-01T23:53:46;5.60;;;2.83;;
39410;SDS011;26579;43.238;23.124;2023-04-01T23:56:15;15.57;;;5.10;;
39410;SDS011;26579;43.238;23.124;2023-04-01T23:58:43;11.18;;;4.70;;
